Time,TemperatureF,DewpointF,PressureIn,WindDirection,WindDirectionDegrees,WindSpeedMPH,WindSpeedGustMPH,Humidity,HourlyPrecipIn,Conditions,Clouds,dailyrainin,SoftwareType,DateUTC
2013-04-19 00:01:00,58.6,56.3,29.56,SE,135,0.0,0.8,92,0.00,OVC,OVC,0.00,WeatherDisplay:10.37,2013-04-19 04:01:00,
2013-04-19 00:02:00,58.6,56.3,29.56,SW,225,0.0,0.0,92,0.00,OVC,OVC,0.00,WeatherDisplay:10.37,2013-04-19 04:02:00,
2013-04-19 00:04:00,58.6,56.3,29.56,SW,225,0.0,0.0,92,0.00,OVC,OVC,0.00,WeatherDisplay:10.37,2013-04-19 04:04:00,
2013-04-19 00:05:00,58.6,56.3,29.56,SW,225,0.0,0.0,92,0.00,OVC,OVC,0.00,WeatherDisplay:10.37,2013-04-19 04:05:00,
2013-04-19 00:06:00,58.5,56.1,29.56,SW,225,0.0,0.0,92,0.00,OVC,OVC,0.00,WeatherDisplay:10.37,2013-04-19 04:06:00,
2013-04-19 00:11:00,58.5,56.1,29.56,SW,225,0.0,0.0,92,0.00,OVC,OVC,0.00,WeatherDisplay:10.37,2013-04-19 04:11:00,
2013-04-19 00:16:00,58.5,56.1,29.56,South,180,0.0,0.0,92,0.00,OVC,OVC,0.00,WeatherDisplay:10.37,2013-04-19 04:16:00,
2013-04-19 00:21:00,58.5,56.1,29.52,SE,135,2.3,2.3,92,0.00,OVC,OVC,0.00,WeatherDisplay:10.37,2013-04-19 04:21:00,
2013-04-19 00:26:00,58.5,56.1,29.52,SE,135,1.2,1.2,92,0.00,OVC,OVC,0.00,WeatherDisplay:10.37,2013-04-19 04:26:00,
2013-04-19 00:31:00,58.5,56.1,29.52,SE,135,0.0,0.0,92,0.00,OVC,OVC,0.00,WeatherDisplay:10.37,2013-04-19 04:31:00,
2013-04-19 00:36:00,58.3,56.0,29.50,South,180,1.2,0.0,92,0.00,OVC,OVC,0.00,WeatherDisplay:10.37,2013-04-19 04:36:00,
2013-04-19 00:41:00,58.3,56.0,29.50,SSE,158,0.0,0.0,92,0.00,OVC,OVC,0.00,WeatherDisplay:10.37,2013-04-19 04:41:00,
2013-04-19 00:46:00,58.3,56.0,29.50,SSE,158,0.0,0.0,92,0.00,OVC,OVC,0.00,WeatherDisplay:10.37,2013-04-19 04:46:00,
2013-04-19 00:51:00,58.3,56.0,29.50,SSE,158,0.0,0.0,92,0.00,OVC,OVC,0.00,WeatherDisplay:10.37,2013-04-19 04:51:00,
2013-04-19 00:56:00,58.3,56.0,29.49,SSE,158,0.0,0.0,92,0.00,OVC,OVC,0.00,WeatherDisplay:10.37,2013-04-19 04:56:00,
2013-04-19 01:01:00,58.3,56.0,29.49,West,270,3.5,3.5,92,0.00,OVC,OVC,0.00,WeatherDisplay:10.37,2013-04-19 05:01:00,
2013-04-19 01:06:00,58.3,56.0,29.49,West,270,3.5,3.5,92,0.00,OVC,OVC,0.00,WeatherDisplay:10.37,2013-04-19 05:06:00,
2013-04-19 01:11:00,58.3,56.0,29.49,West,270,3.5,3.5,92,0.00,OVC,OVC,0.00,WeatherDisplay:10.37,2013-04-19 05:11:00,
2013-04-19 01:16:00,58.3,56.0,29.49,SSW,202,0.0,0.0,92,0.00,OVC,OVC,0.00,WeatherDisplay:10.37,2013-04-19 05:16:00,
2013-04-19 01:21:00,58.1,55.8,29.48,SSW,202,0.0,0.0,92,0.00,OVC,OVC,0.00,WeatherDisplay:10.37,2013-04-19 05:21:00,
2013-04-19 01:26:00,58.3,56.0,29.48,SSW,202,0.0,0.0,92,0.00,OVC,OVC,0.00,WeatherDisplay:10.37,2013-04-19 05:26:00,
2013-04-19 01:31:00,58.1,55.8,29.48,SSW,202,0.0,0.0,92,0.00,OVC,OVC,0.00,WeatherDisplay:10.37,2013-04-19 05:31:00,
2013-04-19 01:36:00,58.1,55.8,29.48,SSW,202,0.0,0.0,92,0.00,OVC,OVC,0.00,WeatherDisplay:10.37,2013-04-19 05:36:00,
2013-04-19 01:41:00,58.1,55.8,29.48,WSW,248,2.3,2.4,92,0.00,OVC,OVC,0.00,WeatherDisplay:10.37,2013-04-19 05:41:00,
2013-04-19 01:46:00,58.1,55.8,29.45,NE,45,0.0,0.0,92,0.00,OVC,OVC,0.00,WeatherDisplay:10.37,2013-04-19 05:46:00,
2013-04-19 01:51:00,58.1,55.8,29.45,East,90,0.0,0.0,92,0.00,OVC,OVC,0.00,WeatherDisplay:10.37,2013-04-19 05:51:00,
2013-04-19 01:56:00,57.9,55.6,29.45,East,90,0.0,0.0,92,0.00,OVC,OVC,0.00,WeatherDisplay:10.37,2013-04-19 05:56:00,
2013-04-19 02:01:00,57.9,55.9,29.45,East,90,0.0,0.0,93,0.00,OVC,OVC,0.00,WeatherDisplay:10.37,2013-04-19 06:01:00,
2013-04-19 02:06:00,57.9,55.9,29.45,East,90,0.0,0.0,93,0.00,OVC,OVC,0.00,WeatherDisplay:10.37,2013-04-19 06:06:00,
2013-04-19 02:11:00,57.9,55.9,29.45,East,90,2.3,2.3,93,0.00,OVC,OVC,0.00,WeatherDisplay:10.37,2013-04-19 06:11:00,
2013-04-19 02:16:00,57.9,55.9,29.45,East,90,0.0,0.0,93,0.00,OVC,OVC,0.00,WeatherDisplay:10.37,2013-04-19 06:16:00,
2013-04-19 02:21:00,57.9,55.9,29.45,WSW,248,3.5,4.0,93,0.00,OVC,OVC,0.00,WeatherDisplay:10.37,2013-04-19 06:21:00,
2013-04-19 02:26:00,57.9,55.9,29.42,ENE,68,0.0,0.0,93,0.02,RA,RA,0.02,WeatherDisplay:10.37,2013-04-19 06:26:00,
2013-04-19 02:31:00,57.9,55.9,29.42,SSW,202,0.0,0.0,93,0.02,RA,RA,0.02,WeatherDisplay:10.37,2013-04-19 06:31:00,
2013-04-19 02:36:00,57.9,55.9,29.42,NE,45,0.0,0.0,93,0.02,OVC,OVC,0.02,WeatherDisplay:10.37,2013-04-19 06:36:00,
2013-04-19 02:41:00,57.9,55.9,29.42,NE,45,0.0,0.0,93,0.02,OVC,OVC,0.02,WeatherDisplay:10.37,2013-04-19 06:41:00,
2013-04-19 02:46:00,57.9,55.9,29.42,SE,135,2.3,0.0,93,0.02,OVC,OVC,0.02,WeatherDisplay:10.37,2013-04-19 06:46:00,
2013-04-19 02:51:00,57.7,55.7,29.42,SE,135,1.2,1.6,93,0.02,OVC,OVC,0.02,WeatherDisplay:10.37,2013-04-19 06:51:00,
2013-04-19 02:56:00,57.7,55.7,29.42,SE,135,0.0,1.5,93,0.02,OVC,OVC,0.02,WeatherDisplay:10.37,2013-04-19 06:56:00,
2013-04-19 03:01:00,57.7,55.7,29.40,ESE,112,0.0,2.0,93,0.02,OVC,OVC,0.02,WeatherDisplay:10.37,2013-04-19 07:01:00,
2013-04-19 03:06:00,57.7,55.7,29.40,ESE,112,0.0,2.0,93,0.02,OVC,OVC,0.02,WeatherDisplay:10.37,2013-04-19 07:06:00,
2013-04-19 03:11:00,57.9,55.9,29.38,SE,135,2.3,2.3,93,0.02,OVC,OVC,0.02,WeatherDisplay:10.37,2013-04-19 07:11:00,
2013-04-19 03:16:00,57.9,55.9,29.38,SE,135,2.3,2.3,93,0.02,OVC,OVC,0.02,WeatherDisplay:10.37,2013-04-19 07:16:00,
2013-04-19 03:22:00,58.1,56.1,29.37,SE,135,2.3,2.3,93,0.02,OVC,OVC,0.02,WeatherDisplay:10.37,2013-04-19 07:22:00,
2013-04-19 03:28:00,58.3,56.3,29.37,SE,135,2.3,2.4,93,0.02,RA,RA,0.04,WeatherDisplay:10.37,2013-04-19 07:28:00,
2013-04-19 03:33:00,58.3,56.3,29.35,SE,135,2.3,2.3,93,0.02,RA,RA,0.04,WeatherDisplay:10.37,2013-04-19 07:33:00,
2013-04-19 03:38:00,58.5,56.4,29.35,SE,135,2.3,2.3,93,0.02,OVC,OVC,0.04,WeatherDisplay:10.37,2013-04-19 07:38:00,
2013-04-19 03:43:00,58.6,56.6,29.35,SE,135,1.2,2.6,93,0.02,OVC,OVC,0.04,WeatherDisplay:10.37,2013-04-19 07:43:00,
2013-04-19 03:48:00,58.8,56.8,29.35,SE,135,1.2,1.8,93,0.02,OVC,OVC,0.04,WeatherDisplay:10.37,2013-04-19 07:48:00,
2013-04-19 03:53:00,58.8,56.8,29.35,SE,135,0.0,0.0,93,0.02,OVC,OVC,0.04,WeatherDisplay:10.37,2013-04-19 07:53:00,
2013-04-19 03:58:00,58.8,56.8,29.34,SE,135,2.3,2.3,93,0.02,OVC,OVC,0.04,WeatherDisplay:10.37,2013-04-19 07:58:00,
2013-04-19 04:03:00,58.8,56.8,29.34,SSE,158,2.3,2.3,93,0.02,OVC,OVC,0.04,WeatherDisplay:10.37,2013-04-19 08:03:00,
2013-04-19 04:08:00,58.8,56.8,29.34,SSE,158,2.3,2.3,93,0.02,OVC,OVC,0.04,WeatherDisplay:10.37,2013-04-19 08:08:00,
2013-04-19 04:13:00,59.2,57.2,29.33,SE,135,2.3,2.3,93,0.02,OVC,OVC,0.04,WeatherDisplay:10.37,2013-04-19 08:13:00,
2013-04-19 04:18:00,59.4,57.3,29.33,SSE,158,2.3,2.3,93,0.02,OVC,OVC,0.04,WeatherDisplay:10.37,2013-04-19 08:18:00,
2013-04-19 04:23:00,59.4,57.3,29.33,SSE,158,0.0,1.6,93,0.02,OVC,OVC,0.04,WeatherDisplay:10.37,2013-04-19 08:23:00,
2013-04-19 04:28:00,59.4,57.3,29.33,SSE,158,1.2,1.2,93,0.00,OVC,OVC,0.04,WeatherDisplay:10.37,2013-04-19 08:28:00,
2013-04-19 04:33:00,59.7,57.7,29.32,SSE,158,3.5,3.5,93,0.00,OVC,OVC,0.04,WeatherDisplay:10.37,2013-04-19 08:33:00,
2013-04-19 04:38:00,59.7,57.7,29.32,SSE,158,2.3,2.8,93,0.00,OVC,OVC,0.04,WeatherDisplay:10.37,2013-04-19 08:38:00,
2013-04-19 04:43:00,59.9,57.9,29.32,SSW,202,1.2,2.9,93,0.00,OVC,OVC,0.04,WeatherDisplay:10.37,2013-04-19 08:43:00,
2013-04-19 04:48:00,60.1,58.0,29.31,SSW,202,5.8,5.8,93,0.00,OVC,OVC,0.04,WeatherDisplay:10.37,2013-04-19 08:48:00,
2013-04-19 04:53:00,60.4,58.4,29.31,SSW,202,4.6,4.6,93,0.02,RA,RA,0.06,WeatherDisplay:10.37,2013-04-19 08:53:00,
2013-04-19 04:58:00,60.6,58.6,29.31,SSE,158,3.5,4.4,93,0.02,RA,RA,0.06,WeatherDisplay:10.37,2013-04-19 08:58:00,
2013-04-19 05:03:00,60.6,58.6,29.31,SSE,158,4.6,4.6,93,0.02,OVC,OVC,0.06,WeatherDisplay:10.37,2013-04-19 09:03:00,
2013-04-19 05:08:00,60.6,58.6,29.31,SSE,158,4.6,4.6,93,0.02,OVC,OVC,0.06,WeatherDisplay:10.37,2013-04-19 09:08:00,
2013-04-19 05:13:00,60.6,58.6,29.31,SSE,158,4.6,4.6,93,0.02,OVC,OVC,0.06,WeatherDisplay:10.37,2013-04-19 09:13:00,
2013-04-19 05:18:00,61.0,58.6,29.29,South,180,4.6,4.6,92,0.02,OVC,OVC,0.06,WeatherDisplay:10.37,2013-04-19 09:18:00,
2013-04-19 05:23:00,61.0,58.6,29.29,SSW,202,4.6,4.6,92,0.02,OVC,OVC,0.06,WeatherDisplay:10.37,2013-04-19 09:23:00,
2013-04-19 05:28:00,61.2,58.8,29.30,SSW,202,3.5,3.5,92,0.02,OVC,OVC,0.06,WeatherDisplay:10.37,2013-04-19 09:28:00,
2013-04-19 05:33:00,61.2,58.8,29.30,SW,225,4.6,4.6,92,0.02,OVC,OVC,0.06,WeatherDisplay:10.37,2013-04-19 09:33:00,
2013-04-19 05:38:00,61.2,58.8,29.30,SW,225,9.2,9.2,92,0.02,OVC,OVC,0.06,WeatherDisplay:10.37,2013-04-19 09:38:00,
2013-04-19 05:43:00,61.2,58.8,29.30,SW,225,4.6,8.8,92,0.02,OVC,OVC,0.06,WeatherDisplay:10.37,2013-04-19 09:43:00,
2013-04-19 05:48:00,61.3,59.0,29.30,WSW,248,3.5,3.5,92,0.04,RA,RA,0.08,WeatherDisplay:10.37,2013-04-19 09:48:00,
2013-04-19 05:53:00,61.3,59.0,29.30,SW,225,5.8,5.8,92,0.02,RA,RA,0.08,WeatherDisplay:10.37,2013-04-19 09:53:00,
2013-04-19 05:58:00,61.2,58.5,29.32,SW,225,10.4,10.4,91,0.02,OVC,OVC,0.08,WeatherDisplay:10.37,2013-04-19 09:58:00,
2013-04-19 06:03:00,61.2,58.5,29.32,WSW,248,17.3,17.3,91,0.02,OVC,OVC,0.08,WeatherDisplay:10.37,2013-04-19 10:03:00,
2013-04-19 06:08:00,61.2,58.5,29.32,WSW,248,17.3,17.3,91,0.02,OVC,OVC,0.08,WeatherDisplay:10.37,2013-04-19 10:08:00,
2013-04-19 06:13:00,61.2,58.5,29.32,West,270,17.3,17.3,91,0.02,OVC,OVC,0.08,WeatherDisplay:10.37,2013-04-19 10:13:00,
2013-04-19 06:18:00,61.2,57.3,29.32,WNW,292,12.7,12.7,87,0.02,OVC,OVC,0.08,WeatherDisplay:10.37,2013-04-19 10:18:00,
2013-04-19 06:23:00,61.2,57.3,29.32,WSW,248,5.8,6.9,87,0.02,OVC,OVC,0.08,WeatherDisplay:10.37,2013-04-19 10:23:00,
2013-04-19 06:28:00,61.2,57.3,29.32,West,270,12.7,12.7,87,0.02,OVC,OVC,0.08,WeatherDisplay:10.37,2013-04-19 10:28:00,
2013-04-19 06:33:00,52.7,49.2,29.34,South,180,9.2,11.6,88,0.02,OVC,OVC,0.08,WeatherDisplay:10.37,2013-04-19 10:33:00,
2013-04-19 06:38:00,52.0,48.5,29.34,WSW,248,13.8,13.8,88,0.02,OVC,OVC,0.08,WeatherDisplay:10.37,2013-04-19 10:38:00,
2013-04-19 06:43:00,51.4,48.0,29.34,West,270,6.9,16.5,88,0.02,OVC,OVC,0.08,WeatherDisplay:10.37,2013-04-19 10:43:00,
2013-04-19 06:48:00,51.4,48.0,29.34,West,270,16.1,16.1,88,0.00,OVC,OVC,0.08,WeatherDisplay:10.37,2013-04-19 10:48:00,
2013-04-19 06:53:00,50.5,47.1,29.34,West,270,5.8,14.3,88,0.00,OVC,OVC,0.08,WeatherDisplay:10.37,2013-04-19 10:53:00,
2013-04-19 06:58:00,50.2,46.8,29.35,West,270,6.9,6.9,88,0.00,OVC,OVC,0.08,WeatherDisplay:10.37,2013-04-19 10:58:00,
2013-04-19 07:03:00,49.8,46.4,29.35,West,270,12.7,12.7,88,0.00,OVC,OVC,0.08,WeatherDisplay:10.37,2013-04-19 11:03:00,
2013-04-19 07:08:00,49.3,45.9,29.35,West,270,6.9,6.9,88,0.00,OVC,OVC,0.08,WeatherDisplay:10.37,2013-04-19 11:08:00,
2013-04-19 07:13:00,49.3,45.9,29.35,West,270,13.8,14.0,88,0.00,OVC,OVC,0.08,WeatherDisplay:10.37,2013-04-19 11:13:00,
2013-04-19 07:18:00,48.7,45.3,29.35,West,270,11.5,11.6,88,0.00,OVC,OVC,0.08,WeatherDisplay:10.37,2013-04-19 11:18:00,
2013-04-19 07:23:00,48.7,45.3,29.35,WNW,292,5.8,5.8,88,0.00,OVC,OVC,0.08,WeatherDisplay:10.37,2013-04-19 11:23:00,
2013-04-19 07:28:00,48.0,44.9,29.35,SW,225,15.0,15.0,89,0.00,OVC,OVC,0.08,WeatherDisplay:10.37,2013-04-19 11:28:00,
2013-04-19 07:33:00,48.0,44.9,29.35,WSW,248,12.7,12.7,89,0.00,OVC,OVC,0.08,WeatherDisplay:10.37,2013-04-19 11:33:00,
2013-04-19 07:38:00,48.0,44.9,29.35,WSW,248,10.4,10.4,89,0.00,OVC,OVC,0.08,WeatherDisplay:10.37,2013-04-19 11:38:00,
2013-04-19 07:43:00,47.3,44.2,29.35,WSW,248,9.2,9.6,89,0.00,OVC,OVC,0.08,WeatherDisplay:10.37,2013-04-19 11:43:00,
2013-04-19 07:48:00,46.8,44.0,29.35,West,270,11.5,11.5,90,0.00,OVC,OVC,0.08,WeatherDisplay:10.37,2013-04-19 11:48:00,
2013-04-19 07:53:00,46.6,43.8,29.35,WSW,248,5.8,6.9,90,0.00,OVC,OVC,0.08,WeatherDisplay:10.37,2013-04-19 11:53:00,
2013-04-19 07:58:00,46.0,43.3,29.40,West,270,11.5,11.5,90,0.00,OVC,OVC,0.08,WeatherDisplay:10.37,2013-04-19 11:58:00,
2013-04-19 08:03:00,45.7,42.9,29.40,West,270,16.1,16.1,90,0.00,OVC,OVC,0.08,WeatherDisplay:10.37,2013-04-19 12:03:00,
2013-04-19 08:08:00,45.1,42.4,29.40,WSW,248,15.0,15.0,90,0.00,OVC,OVC,0.08,WeatherDisplay:10.37,2013-04-19 12:08:00,
2013-04-19 08:13:00,45.1,42.4,29.40,WSW,248,27.6,27.6,90,0.00,OVC,OVC,0.08,WeatherDisplay:10.37,2013-04-19 12:13:00,
2013-04-19 08:18:00,44.4,41.4,29.40,SE,135,16.1,16.1,89,0.00,OVC,OVC,0.08,WeatherDisplay:10.37,2013-04-19 12:18:00,
2013-04-19 08:23:00,44.4,41.4,29.40,West,270,8.1,15.5,89,0.00,OVC,OVC,0.08,WeatherDisplay:10.37,2013-04-19 12:23:00,
2013-04-19 08:28:00,43.2,40.1,29.40,West,270,11.5,11.5,89,0.00,OVC,OVC,0.08,WeatherDisplay:10.37,2013-04-19 12:28:00,
2013-04-19 08:33:00,43.2,40.1,29.40,WSW,248,10.4,10.4,89,0.00,OVC,OVC,0.08,WeatherDisplay:10.37,2013-04-19 12:33:00,
2013-04-19 08:38:00,43.2,39.8,29.42,West,270,13.8,13.8,88,0.00,OVC,OVC,0.08,WeatherDisplay:10.37,2013-04-19 12:38:00,
2013-04-19 08:43:00,43.2,39.8,29.42,West,270,11.5,11.5,88,0.00,OVC,OVC,0.08,WeatherDisplay:10.37,2013-04-19 12:43:00,
2013-04-19 08:48:00,43.0,39.4,29.42,West,270,5.8,6.0,87,0.00,OVC,OVC,0.08,WeatherDisplay:10.37,2013-04-19 12:48:00,
2013-04-19 08:54:00,43.0,39.4,29.42,West,270,15.0,15.0,87,0.00,OVC,OVC,0.08,WeatherDisplay:10.37,2013-04-19 12:54:00,
2013-04-19 08:59:00,43.0,39.1,29.42,SW,225,6.9,7.6,86,0.00,OVC,OVC,0.08,WeatherDisplay:10.37,2013-04-19 12:59:00,
2013-04-19 09:04:00,42.6,38.7,29.42,WSW,248,20.7,20.7,86,0.00,OVC,OVC,0.08,WeatherDisplay:10.37,2013-04-19 13:04:00,
2013-04-19 09:09:00,42.4,38.2,29.42,West,270,11.5,11.5,85,0.00,OVC,OVC,0.08,WeatherDisplay:10.37,2013-04-19 13:09:00,
2013-04-19 09:14:00,42.4,38.2,29.42,West,270,6.9,6.9,85,0.00,OVC,OVC,0.08,WeatherDisplay:10.37,2013-04-19 13:14:00,
2013-04-19 09:19:00,42.4,38.2,29.42,West,270,12.7,14.3,85,0.00,OVC,OVC,0.08,WeatherDisplay:10.37,2013-04-19 13:19:00,
2013-04-19 09:24:00,42.4,37.9,29.43,WSW,248,17.3,17.3,84,0.00,OVC,OVC,0.08,WeatherDisplay:10.37,2013-04-19 13:24:00,
2013-04-19 09:29:00,42.4,37.9,29.43,West,270,9.2,14.5,84,0.00,OVC,OVC,0.08,WeatherDisplay:10.37,2013-04-19 13:29:00,
2013-04-19 09:34:00,42.4,37.9,29.43,SW,225,10.4,14.3,84,0.00,OVC,OVC,0.08,WeatherDisplay:10.37,2013-04-19 13:34:00,
2013-04-19 09:39:00,42.4,37.9,29.43,West,270,16.1,16.1,84,0.00,OVC,OVC,0.08,WeatherDisplay:10.37,2013-04-19 13:39:00,
2013-04-19 09:44:00,42.4,37.9,29.43,WSW,248,10.4,10.5,84,0.00,OVC,OVC,0.08,WeatherDisplay:10.37,2013-04-19 13:44:00,
2013-04-19 09:49:00,42.4,37.9,29.43,West,270,23.0,23.0,84,0.00,OVC,OVC,0.08,WeatherDisplay:10.37,2013-04-19 13:49:00,
2013-04-19 09:54:00,42.1,37.6,29.43,WSW,248,18.4,18.4,84,0.00,OVC,OVC,0.08,WeatherDisplay:10.37,2013-04-19 13:54:00,
2013-04-19 10:00:00,41.7,37.2,29.43,West,270,16.1,16.1,84,0.00,OVC,OVC,0.08,WeatherDisplay:10.37,2013-04-19 14:00:00,
2013-04-19 10:05:00,41.7,37.2,29.43,ESE,112,9.2,9.2,84,0.00,OVC,OVC,0.08,WeatherDisplay:10.37,2013-04-19 14:05:00,
2013-04-19 10:10:00,42.1,37.0,29.43,SW,225,20.7,20.7,82,0.00,OVC,OVC,0.08,WeatherDisplay:10.37,2013-04-19 14:10:00,
2013-04-19 10:15:00,42.4,37.3,29.43,West,270,17.3,17.3,82,0.00,OVC,OVC,0.08,WeatherDisplay:10.37,2013-04-19 14:15:00,
2013-04-19 10:20:00,42.6,37.5,29.43,West,270,19.6,19.6,82,0.00,OVC,OVC,0.08,WeatherDisplay:10.37,2013-04-19 14:20:00,
2013-04-19 10:25:00,42.6,37.5,29.43,WSW,248,13.8,17.5,82,0.00,OVC,OVC,0.08,WeatherDisplay:10.37,2013-04-19 14:25:00,
2013-04-19 10:30:00,43.0,36.3,29.45,West,270,10.4,10.4,77,0.00,OVC,OVC,0.08,WeatherDisplay:10.37,2013-04-19 14:30:00,
2013-04-19 10:36:00,43.0,36.3,29.45,SW,225,10.4,10.4,77,0.00,OVC,OVC,0.08,WeatherDisplay:10.37,2013-04-19 14:36:00,
2013-04-19 10:41:00,43.0,36.3,29.45,WSW,248,9.2,10.5,77,0.00,OVC,OVC,0.08,WeatherDisplay:10.37,2013-04-19 14:41:00,
2013-04-19 10:46:00,42.6,35.6,29.47,SW,225,13.8,13.8,76,0.00,OVC,OVC,0.08,WeatherDisplay:10.37,2013-04-19 14:46:00,
2013-04-19 10:51:00,42.6,35.2,29.46,West,270,4.6,12.6,75,0.00,OVC,OVC,0.08,WeatherDisplay:10.37,2013-04-19 14:51:00,
2013-04-19 10:56:00,42.6,35.2,29.46,WSW,248,10.4,10.4,75,0.00,OVC,OVC,0.08,WeatherDisplay:10.37,2013-04-19 14:56:00,
2013-04-19 11:01:00,42.4,35.1,29.46,NW,315,6.9,8.4,75,0.00,OVC,OVC,0.08,WeatherDisplay:10.37,2013-04-19 15:01:00,
2013-04-19 11:06:00,42.1,34.7,29.48,SW,225,11.5,11.5,75,0.00,OVC,OVC,0.08,WeatherDisplay:10.37,2013-04-19 15:06:00,
2013-04-19 11:11:00,42.1,34.7,29.48,WNW,292,9.2,14.4,75,0.00,OVC,OVC,0.08,WeatherDisplay:10.37,2013-04-19 15:11:00,
2013-04-19 11:17:00,41.9,34.2,29.49,West,270,10.4,15.2,74,0.00,OVC,OVC,0.08,WeatherDisplay:10.37,2013-04-19 15:17:00,
2013-04-19 11:22:00,41.7,34.0,29.49,West,270,25.3,25.3,74,0.00,OVC,OVC,0.08,WeatherDisplay:10.37,2013-04-19 15:22:00,
2013-04-19 11:27:00,41.5,33.9,29.49,SW,225,5.8,11.7,74,0.00,OVC,OVC,0.08,WeatherDisplay:10.37,2013-04-19 15:27:00,
2013-04-19 11:32:00,41.7,34.4,29.49,SSW,202,4.6,11.1,75,0.00,OVC,OVC,0.08,WeatherDisplay:10.37,2013-04-19 15:32:00,
2013-04-19 11:37:00,41.7,34.4,29.49,West,270,17.3,17.4,75,0.00,OVC,OVC,0.08,WeatherDisplay:10.37,2013-04-19 15:37:00,
2013-04-19 11:42:00,41.7,34.4,29.49,West,270,15.0,15.0,75,0.00,OVC,OVC,0.08,WeatherDisplay:10.37,2013-04-19 15:42:00,
2013-04-19 11:47:00,41.7,33.7,29.51,South,180,10.4,12.3,73,0.00,OVC,OVC,0.08,WeatherDisplay:10.37,2013-04-19 15:47:00,
2013-04-19 11:53:00,41.7,33.7,29.51,West,270,6.9,15.3,73,0.00,OVC,OVC,0.08,WeatherDisplay:10.37,2013-04-19 15:53:00,
2013-04-19 11:58:00,41.9,33.9,29.51,WSW,248,18.4,18.4,73,0.00,OVC,OVC,0.08,WeatherDisplay:10.37,2013-04-19 15:58:00,
2013-04-19 12:03:00,42.1,34.0,29.51,WSW,248,16.1,16.1,73,0.00,OVC,OVC,0.08,WeatherDisplay:10.37,2013-04-19 16:03:00,
2013-04-19 12:08:00,41.9,33.5,29.51,West,270,16.1,16.1,72,0.00,OVC,OVC,0.08,WeatherDisplay:10.37,2013-04-19 16:08:00,
2013-04-19 12:13:00,42.1,33.7,29.51,West,270,13.8,16.2,72,0.00,OVC,OVC,0.08,WeatherDisplay:10.37,2013-04-19 16:13:00,
2013-04-19 12:18:00,41.9,33.9,29.51,SW,225,8.1,8.1,73,0.00,OVC,OVC,0.08,WeatherDisplay:10.37,2013-04-19 16:18:00,
2013-04-19 12:23:00,42.1,34.0,29.51,WSW,248,11.5,11.5,73,0.00,OVC,OVC,0.08,WeatherDisplay:10.37,2013-04-19 16:23:00,
2013-04-19 12:28:00,42.4,34.4,29.51,SW,225,9.2,9.2,73,0.00,OVC,OVC,0.08,WeatherDisplay:10.37,2013-04-19 16:28:00,
2013-04-19 12:33:00,42.4,34.4,29.51,SW,225,9.2,9.2,73,0.00,OVC,OVC,0.08,WeatherDisplay:10.37,2013-04-19 16:33:00,
2013-04-19 12:38:00,42.3,34.2,29.51,NW,315,19.6,19.7,73,0.00,OVC,OVC,0.08,WeatherDisplay:10.37,2013-04-19 16:38:00,
2013-04-19 12:43:00,42.3,34.2,29.51,WSW,248,11.5,11.5,73,0.00,OVC,OVC,0.08,WeatherDisplay:10.37,2013-04-19 16:43:00,
2013-04-19 12:48:00,41.9,33.9,29.51,SSW,202,10.4,10.4,73,0.00,OVC,OVC,0.08,WeatherDisplay:10.37,2013-04-19 16:48:00,
2013-04-19 12:53:00,41.9,33.9,29.51,SW,225,10.4,15.9,73,0.00,OVC,OVC,0.08,WeatherDisplay:10.37,2013-04-19 16:53:00,
2013-04-19 12:58:00,41.9,33.9,29.52,East,90,5.8,5.8,73,0.00,OVC,OVC,0.08,WeatherDisplay:10.37,2013-04-19 16:58:00,
2013-04-19 13:03:00,41.7,33.4,29.52,WSW,248,13.8,13.8,72,0.00,OVC,OVC,0.08,WeatherDisplay:10.37,2013-04-19 17:03:00,
2013-04-19 13:08:00,41.5,33.2,29.52,WSW,248,12.7,12.7,72,0.00,OVC,OVC,0.08,WeatherDisplay:10.37,2013-04-19 17:08:00,
2013-04-19 13:13:00,41.5,33.2,29.52,WSW,248,8.1,9.2,72,0.00,OVC,OVC,0.08,WeatherDisplay:10.37,2013-04-19 17:13:00,
2013-04-19 13:18:00,42.1,34.0,29.52,WSW,248,19.6,19.6,73,0.00,OVC,OVC,0.08,WeatherDisplay:10.37,2013-04-19 17:18:00,
2013-04-19 13:23:00,42.6,34.2,29.52,WSW,248,10.4,17.7,72,0.00,OVC,OVC,0.08,WeatherDisplay:10.37,2013-04-19 17:23:00,
2013-04-19 13:28:00,43.5,34.7,29.52,South,180,9.2,9.2,71,0.00,OVC,OVC,0.08,WeatherDisplay:10.37,2013-04-19 17:28:00,
2013-04-19 13:33:00,43.7,34.9,29.52,WSW,248,11.5,11.5,71,0.00,OVC,OVC,0.08,WeatherDisplay:10.37,2013-04-19 17:33:00,
2013-04-19 13:38:00,43.5,34.7,29.52,WSW,248,10.4,10.4,71,0.00,OVC,OVC,0.08,WeatherDisplay:10.37,2013-04-19 17:38:00,
2013-04-19 13:43:00,43.5,34.7,29.52,West,270,5.8,9.2,71,0.00,OVC,OVC,0.08,WeatherDisplay:10.37,2013-04-19 17:43:00,
2013-04-19 13:48:00,42.8,34.0,29.52,SW,225,10.4,10.4,71,0.00,OVC,OVC,0.08,WeatherDisplay:10.37,2013-04-19 17:48:00,
2013-04-19 13:53:00,42.6,33.9,29.52,West,270,10.4,10.4,71,0.00,OVC,OVC,0.08,WeatherDisplay:10.37,2013-04-19 17:53:00,
2013-04-19 13:58:00,42.8,34.0,29.52,West,270,12.7,12.7,71,0.00,OVC,OVC,0.08,WeatherDisplay:10.37,2013-04-19 17:58:00,
2013-04-19 14:03:00,43.0,34.2,29.52,WSW,248,20.7,20.7,71,0.00,OVC,OVC,0.08,WeatherDisplay:10.37,2013-04-19 18:03:00,
2013-04-19 14:08:00,43.9,34.4,29.52,SSW,202,6.9,6.9,69,0.00,OVC,OVC,0.08,WeatherDisplay:10.37,2013-04-19 18:08:00,
2013-04-19 14:13:00,43.9,34.4,29.52,SSE,158,6.9,7.3,69,0.00,OVC,OVC,0.08,WeatherDisplay:10.37,2013-04-19 18:13:00,
2013-04-19 14:18:00,43.9,34.4,29.52,SW,225,13.8,13.8,69,0.00,OVC,OVC,0.08,WeatherDisplay:10.37,2013-04-19 18:18:00,
2013-04-19 14:23:00,44.4,34.9,29.52,WNW,292,23.0,23.0,69,0.00,OVC,OVC,0.08,WeatherDisplay:10.37,2013-04-19 18:23:00,
2013-04-19 14:28:00,43.9,34.4,29.52,South,180,11.5,11.5,69,0.00,OVC,OVC,0.08,WeatherDisplay:10.37,2013-04-19 18:28:00,
2013-04-19 14:33:00,43.9,34.4,29.52,West,270,5.8,7.6,69,0.00,OVC,OVC,0.08,WeatherDisplay:10.37,2013-04-19 18:33:00,
2013-04-19 14:38:00,43.7,33.8,29.54,WSW,248,18.4,18.4,68,0.00,OVC,OVC,0.08,WeatherDisplay:10.37,2013-04-19 18:38:00,
2013-04-19 14:43:00,43.7,33.8,29.54,SSW,202,6.9,8.7,68,0.00,OVC,OVC,0.08,WeatherDisplay:10.37,2013-04-19 18:43:00,
2013-04-19 14:48:00,44.2,33.6,29.55,WSW,248,16.1,16.1,66,0.00,OVC,OVC,0.08,WeatherDisplay:10.37,2013-04-19 18:48:00,
2013-04-19 14:53:00,44.1,33.4,29.55,WSW,248,17.3,17.3,66,0.00,OVC,OVC,0.08,WeatherDisplay:10.37,2013-04-19 18:53:00,
2013-04-19 14:58:00,44.4,33.4,29.55,SSW,202,11.5,11.5,65,0.00,OVC,OVC,0.08,WeatherDisplay:10.37,2013-04-19 18:58:00,
2013-04-19 15:03:00,44.4,32.6,29.55,WSW,248,10.4,10.4,63,0.00,OVC,OVC,0.08,WeatherDisplay:10.37,2013-04-19 19:03:00,
2013-04-19 15:08:00,44.4,32.6,29.55,SW,225,8.1,8.1,63,0.00,OVC,OVC,0.08,WeatherDisplay:10.37,2013-04-19 19:08:00,
2013-04-19 15:13:00,44.6,32.8,29.55,SW,225,15.0,15.0,63,0.00,OVC,OVC,0.08,WeatherDisplay:10.37,2013-04-19 19:13:00,
2013-04-19 15:18:00,45.1,33.3,29.55,ENE,68,20.7,20.7,63,0.00,OVC,OVC,0.08,WeatherDisplay:10.37,2013-04-19 19:18:00,
2013-04-19 15:23:00,45.1,32.9,29.56,WSW,248,20.7,20.7,62,0.00,OVC,OVC,0.08,WeatherDisplay:10.37,2013-04-19 19:23:00,
2013-04-19 15:28:00,44.8,32.9,29.56,WSW,248,15.0,15.0,63,0.00,OVC,OVC,0.08,WeatherDisplay:10.37,2013-04-19 19:28:00,
2013-04-19 15:33:00,44.4,32.6,29.56,East,90,4.6,4.6,63,0.00,OVC,OVC,0.08,WeatherDisplay:10.37,2013-04-19 19:33:00,
2013-04-19 15:38:00,44.4,32.6,29.56,SE,135,9.2,9.2,63,0.00,OVC,OVC,0.08,WeatherDisplay:10.37,2013-04-19 19:38:00,
2013-04-19 15:43:00,44.4,32.6,29.56,SW,225,10.4,24.3,63,0.00,OVC,OVC,0.08,WeatherDisplay:10.37,2013-04-19 19:43:00,
2013-04-19 15:48:00,44.8,32.9,29.56,SSW,202,16.1,16.1,63,0.00,OVC,OVC,0.08,WeatherDisplay:10.37,2013-04-19 19:48:00,
2013-04-19 15:53:00,44.8,32.9,29.56,WSW,248,13.8,14.7,63,0.00,OVC,OVC,0.08,WeatherDisplay:10.37,2013-04-19 19:53:00,
2013-04-19 15:58:00,45.1,33.3,29.56,WSW,248,9.2,13.1,63,0.00,OVC,OVC,0.08,WeatherDisplay:10.37,2013-04-19 19:58:00,
2013-04-19 16:03:00,44.8,32.5,29.56,SW,225,10.4,10.5,62,0.00,OVC,OVC,0.08,WeatherDisplay:10.37,2013-04-19 20:03:00,
2013-04-19 16:08:00,44.2,32.0,29.56,West,270,16.1,16.1,62,0.00,OVC,OVC,0.08,WeatherDisplay:10.37,2013-04-19 20:08:00,
2013-04-19 16:13:00,44.2,32.0,29.56,WSW,248,15.0,16.2,62,0.00,OVC,OVC,0.08,WeatherDisplay:10.37,2013-04-19 20:13:00,
2013-04-19 16:18:00,43.5,31.8,29.56,WSW,248,17.3,17.3,63,0.00,OVC,OVC,0.08,WeatherDisplay:10.37,2013-04-19 20:18:00,
2013-04-19 16:23:00,43.5,31.8,29.56,WSW,248,11.5,11.5,63,0.00,OVC,OVC,0.08,WeatherDisplay:10.37,2013-04-19 20:23:00,
2013-04-19 16:28:00,43.9,32.5,29.56,WSW,248,11.5,11.5,64,0.00,OVC,OVC,0.08,WeatherDisplay:10.37,2013-04-19 20:28:00,
2013-04-19 16:33:00,43.9,32.9,29.58,West,270,12.7,12.7,65,0.00,OVC,OVC,0.08,WeatherDisplay:10.37,2013-04-19 20:33:00,
2013-04-19 16:38:00,43.2,32.2,29.58,WSW,248,15.0,15.0,65,0.00,OVC,OVC,0.08,WeatherDisplay:10.37,2013-04-19 20:38:00,
2013-04-19 16:43:00,43.2,32.2,29.59,WSW,248,9.2,11.8,65,0.00,OVC,OVC,0.08,WeatherDisplay:10.37,2013-04-19 20:43:00,
2013-04-19 16:48:00,43.2,32.2,29.59,WSW,248,9.2,9.8,65,0.00,OVC,OVC,0.08,WeatherDisplay:10.37,2013-04-19 20:48:00,
2013-04-19 16:53:00,43.0,32.0,29.59,West,270,12.7,12.7,65,0.00,OVC,OVC,0.08,WeatherDisplay:10.37,2013-04-19 20:53:00,
2013-04-19 16:58:00,43.0,32.0,29.60,SW,225,20.7,20.7,65,0.00,OVC,OVC,0.08,WeatherDisplay:10.37,2013-04-19 20:58:00,
2013-04-19 17:03:00,43.0,32.0,29.59,WSW,248,11.5,11.5,65,0.00,OVC,OVC,0.08,WeatherDisplay:10.37,2013-04-19 21:03:00,
2013-04-19 17:08:00,43.5,32.5,29.59,WSW,248,13.8,13.8,65,0.00,OVC,OVC,0.08,WeatherDisplay:10.37,2013-04-19 21:08:00,
2013-04-19 17:13:00,43.5,32.5,29.59,SSW,202,19.6,19.6,65,0.00,OVC,OVC,0.08,WeatherDisplay:10.37,2013-04-19 21:13:00,
2013-04-19 17:18:00,42.6,32.0,29.59,SSE,158,9.2,9.2,66,0.00,OVC,OVC,0.08,WeatherDisplay:10.37,2013-04-19 21:18:00,
2013-04-19 17:23:00,42.6,32.0,29.59,WSW,248,8.1,8.1,66,0.00,OVC,OVC,0.08,WeatherDisplay:10.37,2013-04-19 21:23:00,
2013-04-19 17:28:00,42.1,31.9,29.62,West,270,10.4,10.5,67,0.00,OVC,OVC,0.08,WeatherDisplay:10.37,2013-04-19 21:28:00,
2013-04-19 17:33:00,42.1,31.9,29.62,SSE,158,4.6,10.7,67,0.00,OVC,OVC,0.08,WeatherDisplay:10.37,2013-04-19 21:33:00,
2013-04-19 17:38:00,42.1,31.9,29.62,SSE,158,12.7,12.7,67,0.00,OVC,OVC,0.08,WeatherDisplay:10.37,2013-04-19 21:38:00,
2013-04-19 17:43:00,42.1,31.9,29.62,WSW,248,11.5,11.5,67,0.00,OVC,OVC,0.08,WeatherDisplay:10.37,2013-04-19 21:43:00,
2013-04-19 17:48:00,42.4,32.3,29.62,West,270,15.0,15.0,67,0.00,OVC,OVC,0.08,WeatherDisplay:10.37,2013-04-19 21:48:00,
2013-04-19 17:53:00,42.4,32.6,29.62,WSW,248,17.3,17.3,68,0.00,OVC,OVC,0.08,WeatherDisplay:10.37,2013-04-19 21:53:00,
2013-04-19 17:58:00,43.0,33.1,29.62,West,270,17.3,17.3,68,0.00,OVC,OVC,0.08,WeatherDisplay:10.37,2013-04-19 21:58:00,
2013-04-19 18:03:00,43.0,33.1,29.62,West,270,8.1,8.1,68,0.00,OVC,OVC,0.08,WeatherDisplay:10.37,2013-04-19 22:03:00,
2013-04-19 18:08:00,43.3,33.1,29.62,WSW,248,18.4,18.4,67,0.00,OVC,OVC,0.08,WeatherDisplay:10.37,2013-04-19 22:08:00,
2013-04-19 18:13:00,43.3,33.1,29.62,South,180,5.8,13.1,67,0.00,OVC,OVC,0.08,WeatherDisplay:10.37,2013-04-19 22:13:00,
2013-04-19 18:18:00,43.0,32.8,29.62,WSW,248,18.4,18.4,67,0.00,OVC,OVC,0.08,WeatherDisplay:10.37,2013-04-19 22:18:00,
2013-04-19 18:23:00,42.6,32.4,29.62,WSW,248,9.2,17.4,67,0.00,OVC,OVC,0.08,WeatherDisplay:10.37,2013-04-19 22:23:00,
2013-04-19 18:28:00,42.4,32.6,29.62,SSW,202,9.2,9.2,68,0.00,OVC,OVC,0.08,WeatherDisplay:10.37,2013-04-19 22:28:00,
2013-04-19 18:33:00,42.4,32.6,29.62,WNW,292,12.7,12.7,68,0.00,OVC,OVC,0.08,WeatherDisplay:10.37,2013-04-19 22:33:00,
2013-04-19 18:38:00,41.9,33.2,29.62,WSW,248,9.2,9.2,71,0.00,OVC,OVC,0.08,WeatherDisplay:10.37,2013-04-19 22:38:00,
2013-04-19 18:43:00,41.9,33.2,29.62,West,270,16.1,16.1,71,0.00,OVC,OVC,0.08,WeatherDisplay:10.37,2013-04-19 22:43:00,
2013-04-19 18:48:00,41.7,32.7,29.62,ENE,68,8.1,8.1,70,0.00,OVC,OVC,0.08,WeatherDisplay:10.37,2013-04-19 22:48:00,
2013-04-19 18:53:00,41.5,32.5,29.62,West,270,9.2,9.2,70,0.00,OVC,OVC,0.08,WeatherDisplay:10.37,2013-04-19 22:53:00,
2013-04-19 18:58:00,41.5,32.8,29.66,WSW,248,18.4,18.4,71,0.00,OVC,OVC,0.08,WeatherDisplay:10.37,2013-04-19 22:58:00,
2013-04-19 19:03:00,41.5,32.8,29.66,SSW,202,5.8,6.6,71,0.00,OVC,OVC,0.08,WeatherDisplay:10.37,2013-04-19 23:03:00,
2013-04-19 19:08:00,41.4,32.7,29.66,West,270,12.7,12.7,71,0.00,OVC,OVC,0.08,WeatherDisplay:10.37,2013-04-19 23:08:00,
2013-04-19 19:13:00,41.4,32.7,29.66,WSW,248,3.5,12.1,71,0.00,OVC,OVC,0.08,WeatherDisplay:10.37,2013-04-19 23:13:00,
2013-04-19 19:18:00,41.2,32.5,29.66,WSW,248,12.7,12.7,71,0.00,OVC,OVC,0.08,WeatherDisplay:10.37,2013-04-19 23:18:00,
2013-04-19 19:23:00,41.2,32.5,29.66,SW,225,10.4,10.4,71,0.00,OVC,OVC,0.08,WeatherDisplay:10.37,2013-04-19 23:23:00,
2013-04-19 19:28:00,40.8,32.5,29.66,West,270,15.0,15.0,72,0.00,OVC,OVC,0.08,WeatherDisplay:10.37,2013-04-19 23:28:00,
2013-04-19 19:33:00,40.8,32.5,29.66,WSW,248,4.6,5.0,72,0.00,OVC,OVC,0.08,WeatherDisplay:10.37,2013-04-19 23:33:00,
2013-04-19 19:38:00,40.8,32.5,29.66,SW,225,9.2,9.2,72,0.00,OVC,OVC,0.08,WeatherDisplay:10.37,2013-04-19 23:38:00,
2013-04-19 19:43:00,40.8,32.5,29.66,WSW,248,8.1,8.1,72,0.00,OVC,OVC,0.08,WeatherDisplay:10.37,2013-04-19 23:43:00,
2013-04-19 19:48:00,40.8,32.5,29.66,SW,225,8.1,8.1,72,0.00,OVC,OVC,0.08,WeatherDisplay:10.37,2013-04-19 23:48:00,
2013-04-19 19:53:00,40.8,32.1,29.66,WSW,248,9.2,9.2,71,0.00,OVC,OVC,0.08,WeatherDisplay:10.37,2013-04-19 23:53:00,
2013-04-19 19:58:00,40.8,32.1,29.66,WSW,248,12.7,13.0,71,0.00,OVC,OVC,0.08,WeatherDisplay:10.37,2013-04-19 23:58:00,
2013-04-19 20:03:00,40.5,31.8,29.66,WSW,248,11.5,11.5,71,0.00,OVC,OVC,0.08,WeatherDisplay:10.37,2013-04-20 00:03:00,
2013-04-19 20:08:00,40.5,31.8,29.66,WSW,248,9.2,9.2,71,0.00,OVC,OVC,0.08,WeatherDisplay:10.37,2013-04-20 00:08:00,
2013-04-19 20:13:00,40.1,31.8,29.66,WSW,248,6.9,7.9,72,0.00,OVC,OVC,0.08,WeatherDisplay:10.37,2013-04-20 00:13:00,
2013-04-19 20:18:00,39.9,31.6,29.69,SSW,202,6.9,6.9,72,0.00,OVC,OVC,0.08,WeatherDisplay:10.37,2013-04-20 00:18:00,
2013-04-19 20:23:00,40.1,31.8,29.69,SW,225,8.1,8.1,72,0.00,OVC,OVC,0.08,WeatherDisplay:10.37,2013-04-20 00:23:00,
2013-04-19 20:28:00,40.1,31.8,29.69,WSW,248,10.4,10.4,72,0.00,OVC,OVC,0.08,WeatherDisplay:10.37,2013-04-20 00:28:00,
2013-04-19 20:33:00,40.1,31.8,29.69,SW,225,5.8,12.7,72,0.00,OVC,OVC,0.08,WeatherDisplay:10.37,2013-04-20 00:33:00,
2013-04-19 20:38:00,40.1,31.8,29.69,SW,225,18.4,18.4,72,0.00,OVC,OVC,0.08,WeatherDisplay:10.37,2013-04-20 00:38:00,
2013-04-19 20:43:00,39.9,32.0,29.70,WSW,248,16.1,16.1,73,0.00,OVC,OVC,0.08,WeatherDisplay:10.37,2013-04-20 00:43:00,
2013-04-19 20:48:00,39.9,32.0,29.70,West,270,11.5,11.5,73,0.00,OVC,OVC,0.08,WeatherDisplay:10.37,2013-04-20 00:48:00,
2013-04-19 20:53:00,39.9,32.0,29.70,SW,225,8.1,8.1,73,0.00,OVC,OVC,0.08,WeatherDisplay:10.37,2013-04-20 00:53:00,
2013-04-19 20:58:00,39.9,32.0,29.70,West,270,11.5,11.5,73,0.00,OVC,OVC,0.08,WeatherDisplay:10.37,2013-04-20 00:58:00,
2013-04-19 21:03:00,39.7,31.8,29.70,WSW,248,6.9,8.6,73,0.00,OVC,OVC,0.08,WeatherDisplay:10.37,2013-04-20 01:03:00,
2013-04-19 21:08:00,39.6,31.6,29.70,West,270,13.8,13.8,73,0.00,OVC,OVC,0.08,WeatherDisplay:10.37,2013-04-20 01:08:00,
2013-04-19 21:13:00,39.6,31.6,29.70,West,270,10.4,10.4,73,0.00,OVC,OVC,0.08,WeatherDisplay:10.37,2013-04-20 01:13:00,
2013-04-19 21:18:00,39.4,32.4,29.70,SW,225,9.2,9.2,76,0.00,OVC,OVC,0.08,WeatherDisplay:10.37,2013-04-20 01:18:00,
2013-04-19 21:23:00,39.4,32.4,29.70,SE,135,9.2,9.2,76,0.00,OVC,OVC,0.08,WeatherDisplay:10.37,2013-04-20 01:23:00,
2013-04-19 21:28:00,39.4,32.4,29.70,WSW,248,10.4,10.4,76,0.00,OVC,OVC,0.08,WeatherDisplay:10.37,2013-04-20 01:28:00,
2013-04-19 21:33:00,39.4,32.4,29.70,West,270,4.6,4.6,76,0.00,OVC,OVC,0.08,WeatherDisplay:10.37,2013-04-20 01:33:00,
2013-04-19 21:38:00,39.0,32.1,29.70,WSW,248,9.2,9.2,76,0.00,OVC,OVC,0.08,WeatherDisplay:10.37,2013-04-20 01:38:00,
2013-04-19 21:43:00,39.0,32.1,29.70,WSW,248,6.9,6.9,76,0.00,OVC,OVC,0.08,WeatherDisplay:10.37,2013-04-20 01:43:00,
2013-04-19 21:48:00,38.8,31.9,29.70,West,270,11.5,11.5,76,0.00,OVC,OVC,0.08,WeatherDisplay:10.37,2013-04-20 01:48:00,
2013-04-19 21:53:00,38.8,32.2,29.70,West,270,12.7,12.7,77,0.00,OVC,OVC,0.08,WeatherDisplay:10.37,2013-04-20 01:53:00,
2013-04-19 21:58:00,39.0,32.1,29.70,WSW,248,9.2,9.2,76,0.00,OVC,OVC,0.08,WeatherDisplay:10.37,2013-04-20 01:58:00,
2013-04-19 22:03:00,39.0,31.8,29.73,SW,225,3.5,4.9,75,0.00,OVC,OVC,0.08,WeatherDisplay:10.37,2013-04-20 02:03:00,
2013-04-19 22:08:00,39.0,31.8,29.73,WSW,248,8.1,8.1,75,0.00,OVC,OVC,0.08,WeatherDisplay:10.37,2013-04-20 02:08:00,
2013-04-19 22:13:00,39.0,31.8,29.73,SSW,202,8.1,8.1,75,0.00,OVC,OVC,0.08,WeatherDisplay:10.37,2013-04-20 02:13:00,
2013-04-19 22:18:00,39.0,31.8,29.73,WSW,248,6.9,6.9,75,0.00,OVC,OVC,0.08,WeatherDisplay:10.37,2013-04-20 02:18:00,
2013-04-19 22:23:00,39.0,31.8,29.73,WSW,248,3.5,10.5,75,0.00,OVC,OVC,0.08,WeatherDisplay:10.37,2013-04-20 02:23:00,
2013-04-19 22:28:00,39.0,31.4,29.72,SW,225,11.5,11.5,74,0.00,OVC,OVC,0.08,WeatherDisplay:10.37,2013-04-20 02:28:00,
2013-04-19 22:33:00,39.0,31.4,29.72,West,270,8.1,8.1,74,0.00,OVC,OVC,0.08,WeatherDisplay:10.37,2013-04-20 02:33:00,
2013-04-19 22:38:00,39.0,31.8,29.72,SW,225,10.4,10.4,75,0.00,OVC,OVC,0.08,WeatherDisplay:10.37,2013-04-20 02:38:00,
2013-04-19 22:43:00,39.0,31.8,29.72,SSW,202,4.6,4.6,75,0.00,OVC,OVC,0.08,WeatherDisplay:10.37,2013-04-20 02:43:00,
2013-04-19 22:48:00,39.0,32.1,29.72,WSW,248,8.1,8.1,76,0.00,OVC,OVC,0.08,WeatherDisplay:10.37,2013-04-20 02:48:00,
2013-04-19 22:53:00,39.0,32.1,29.72,West,270,6.9,9.9,76,0.00,OVC,OVC,0.08,WeatherDisplay:10.37,2013-04-20 02:53:00,
2013-04-19 22:58:00,38.5,31.6,29.72,SW,225,10.4,10.4,76,0.00,OVC,OVC,0.08,WeatherDisplay:10.37,2013-04-20 02:58:00,
2013-04-19 23:03:00,38.5,31.6,29.72,WSW,248,9.2,9.2,76,0.00,OVC,OVC,0.08,WeatherDisplay:10.37,2013-04-20 03:03:00,
2013-04-19 23:08:00,38.5,31.6,29.72,SSW,202,8.1,8.1,76,0.00,OVC,OVC,0.08,WeatherDisplay:10.37,2013-04-20 03:08:00,
2013-04-19 23:13:00,38.3,31.4,29.72,West,270,8.1,8.1,76,0.00,OVC,OVC,0.08,WeatherDisplay:10.37,2013-04-20 03:13:00,
2013-04-19 23:18:00,38.1,30.9,29.72,SW,225,10.4,10.4,75,0.00,OVC,OVC,0.08,WeatherDisplay:10.37,2013-04-20 03:18:00,
2013-04-19 23:23:00,37.9,30.4,29.73,West,270,6.9,9.7,74,0.00,OVC,OVC,0.08,WeatherDisplay:10.37,2013-04-20 03:23:00,
2013-04-19 23:28:00,37.9,30.4,29.73,WSW,248,9.2,9.2,74,0.00,OVC,OVC,0.08,WeatherDisplay:10.37,2013-04-20 03:28:00,
2013-04-19 23:33:00,37.8,30.2,29.72,WSW,248,9.2,10.8,74,0.00,OVC,OVC,0.08,WeatherDisplay:10.37,2013-04-20 03:33:00,
2013-04-19 23:38:00,37.6,30.4,29.72,WSW,248,10.4,10.4,75,0.00,OVC,OVC,0.08,WeatherDisplay:10.37,2013-04-20 03:38:00,
2013-04-19 23:43:00,37.4,30.2,29.72,West,270,10.4,10.4,75,0.00,OVC,OVC,0.08,WeatherDisplay:10.37,2013-04-20 03:43:00,
2013-04-19 23:48:00,37.2,30.0,29.72,WSW,248,8.1,8.1,75,0.00,OVC,OVC,0.08,WeatherDisplay:10.37,2013-04-20 03:48:00,
2013-04-19 23:53:00,37.2,30.0,29.72,West,270,8.1,8.2,75,0.00,OVC,OVC,0.08,WeatherDisplay:10.37,2013-04-20 03:53:00,
2013-04-19 23:58:00,37.2,30.0,29.73,WSW,248,9.2,9.2,75,0.00,OVC,OVC,0.08,WeatherDisplay:10.37,2013-04-20 03:58:00,